Time;durP1;ratioP1;P1;durP2;ratioP2;P2;SDS_P1;SDS_P2;PMS_P1;PMS_P2;Temp;Humidity;BMP_temperature;BMP_pressure;BME280_temperature;BME280_humidity;BME280_pressure;Samples;Min_cycle;Max_cycle;Signal;HPM_P1;HPM_P2
2021/01/30 00:58:53;;;;;;;6.40;1.73;;;3.90;99.90;;;;;;5025191;26;20065;-96
2021/01/30 01:01:19;;;;;;;6.07;1.80;;;3.90;99.90;;;;;;5020491;28;20026;-95
2021/01/30 01:03:45;;;;;;;11.40;1.75;;;3.80;99.90;;;;;;4997117;28;20033;-95
2021/01/30 01:06:11;;;;;;;6.38;1.60;;;3.80;99.90;;;;;;4994831;28;20022;-95
2021/01/30 01:08:37;;;;;;;5.60;2.00;;;3.80;99.90;;;;;;5025749;28;20034;-96
2021/01/30 01:11:08;;;;;;;8.55;2.30;;;3.70;99.90;;;;;;5014163;28;20039;-94
2021/01/30 01:13:34;;;;;;;11.10;2.97;;;3.70;99.90;;;;;;5011805;28;20031;-96
2021/01/30 01:16:00;;;;;;;8.70;3.60;;;3.70;99.90;;;;;;5009979;28;20049;-96
2021/01/30 01:18:28;;;;;;;12.20;2.95;;;3.70;99.90;;;;;;5058003;22;20046;-96
2021/01/30 01:20:58;;;;;;;8.48;2.90;;;3.70;99.90;;;;;;4998694;28;20038;-96
2021/01/30 01:25:59;;;;;;;15.80;3.55;;;3.70;99.90;;;;;;5748459;23;20062;-95
2021/01/30 01:28:25;;;;;;;7.88;3.55;;;3.80;99.90;;;;;;5090455;23;20052;-95
2021/01/30 01:39:17;;;;;;;15.25;3.45;;;3.70;99.90;;;;;;5188012;22;20049;-95
2021/01/30 01:41:43;;;;;;;10.38;3.30;;;3.70;99.90;;;;;;5038228;28;20037;-95
2021/01/30 05:24:16;;;;;;;8.55;1.50;;;2.70;99.90;;;;;;5009517;28;20073;-95
2021/01/30 05:32:26;;;;;;;7.28;2.15;;;2.70;99.90;;;;;;5284889;22;20033;-94
2021/01/30 06:29:40;;;;;;;4.38;1.60;;;2.50;99.90;;;;;;5047358;28;20030;-96
2021/01/30 06:32:19;;;;;;;12.68;2.28;;;2.50;99.90;;;;;;5030881;22;20064;-95
2021/01/30 06:34:54;;;;;;;2.30;1.70;;;2.50;99.90;;;;;;5010643;28;20042;-96
2021/01/30 06:37:40;;;;;;;9.73;2.03;;;2.50;99.90;;;;;;5001501;28;20026;-94
2021/01/30 06:40:13;;;;;;;8.98;1.80;;;2.50;99.90;;;;;;5002197;28;20485;-96
2021/01/30 06:42:42;;;;;;;5.15;1.50;;;2.50;99.90;;;;;;5005753;28;20065;-96
2021/01/30 06:45:09;;;;;;;9.23;1.80;;;2.50;99.90;;;;;;4998637;28;20025;-95
2021/01/30 06:47:49;;;;;;;7.93;1.88;;;2.50;99.90;;;;;;4997693;28;20026;-95
2021/01/30 06:50:26;;;;;;;12.55;1.83;;;2.50;99.90;;;;;;4999898;28;20046;-95
2021/01/30 06:52:51;;;;;;;8.80;2.17;;;2.50;99.90;;;;;;5005160;28;20034;-96
2021/01/30 06:55:17;;;;;;;8.43;1.80;;;2.50;99.90;;;;;;5005389;28;20027;-96
2021/01/30 06:57:42;;;;;;;5.80;1.70;;;2.50;99.90;;;;;;5004378;28;20030;-95
2021/01/30 07:00:34;;;;;;;11.63;1.60;;;2.40;99.90;;;;;;5004504;28;20022;-95
2021/01/30 07:03:14;;;;;;;6.25;1.52;;;2.50;99.90;;;;;;4988614;28;20034;-96
2021/01/30 07:05:50;;;;;;;6.20;1.90;;;2.40;99.90;;;;;;4987268;28;20034;-96
2021/01/30 07:08:57;;;;;;;6.78;1.70;;;2.40;99.90;;;;;;4989674;28;20277;-96
2021/01/30 07:11:47;;;;;;;8.98;1.75;;;2.40;99.90;;;;;;4948001;29;20046;-96
2021/01/30 07:14:40;;;;;;;8.45;1.20;;;2.40;99.90;;;;;;4945773;29;20562;-95
2021/01/30 07:17:24;;;;;;;8.52;1.70;;;2.40;99.90;;;;;;4949267;28;20040;-95
2021/01/30 07:20:11;;;;;;;10.18;1.70;;;2.40;99.90;;;;;;4942203;29;20039;-96
2021/01/30 07:23:11;;;;;;;4.97;2.10;;;2.40;99.90;;;;;;4959310;28;20042;-96
2021/01/30 07:25:55;;;;;;;8.43;1.60;;;2.40;99.90;;;;;;4939459;29;20506;-95
2021/01/30 07:28:46;;;;;;;8.45;1.65;;;2.30;99.90;;;;;;4964935;28;20534;-96
2021/01/30 07:31:35;;;;;;;9.35;1.55;;;2.30;99.90;;;;;;4970375;28;20039;-95
2021/01/30 07:34:12;;;;;;;6.32;1.38;;;2.30;99.90;;;;;;4960365;29;20055;-96
2021/01/30 07:36:43;;;;;;;6.45;1.75;;;2.20;99.90;;;;;;4944342;29;20059;-95
2021/01/30 07:39:39;;;;;;;5.72;2.10;;;2.20;99.90;;;;;;4967081;29;20043;-96
2021/01/30 07:42:11;;;;;;;4.32;1.55;;;2.20;99.90;;;;;;5266733;23;20104;-95
2021/01/30 07:45:01;;;;;;;9.65;1.40;;;2.30;99.90;;;;;;5081906;28;20092;-95
2021/01/30 07:48:04;;;;;;;9.43;1.80;;;2.30;99.90;;;;;;5092732;28;20050;-94
2021/01/30 07:50:35;;;;;;;7.25;1.95;;;2.30;99.90;;;;;;5086438;28;20047;-95
2021/01/30 07:53:05;;;;;;;7.88;2.22;;;2.30;99.90;;;;;;5084643;28;20028;-95
2021/01/30 07:55:33;;;;;;;8.65;1.70;;;2.30;99.90;;;;;;5096609;22;20045;-96
2021/01/30 07:58:37;;;;;;;;;;;;;;;;;;;;;
2021/01/30 08:01:53;;;;;;;6.25;1.85;;;2.30;99.90;;;;;;5064360;28;20045;-96
2021/01/30 08:22:05;;;;;;;5.28;1.50;;;2.20;99.90;;;;;;5707627;22;20050;-95
2021/01/30 08:27:23;;;;;;;3.63;1.50;;;2.20;99.90;;;;;;5397316;22;20032;-94
2021/01/30 08:32:27;;;;;;;5.95;1.85;;;2.20;99.90;;;;;;5995980;23;20806;-94
2021/01/30 08:34:55;;;;;;;5.57;1.83;;;2.20;99.90;;;;;;5259127;23;20056;-95
2021/01/30 08:37:27;;;;;;;6.43;1.85;;;2.30;99.90;;;;;;5082235;28;20025;-96
2021/01/30 08:40:02;;;;;;;6.35;1.77;;;2.20;99.90;;;;;;5075186;28;20156;-95
2021/01/30 08:42:33;;;;;;;11.82;1.88;;;2.20;99.90;;;;;;5085911;28;20043;-96
2021/01/30 08:45:03;;;;;;;6.80;1.90;;;2.20;99.90;;;;;;5066264;28;20074;-95
2021/01/30 08:47:34;;;;;;;5.75;1.60;;;2.30;99.90;;;;;;5051859;28;20021;-95
2021/01/30 08:58:35;;;;;;;7.82;1.77;;;2.60;99.90;;;;;;5218221;22;20079;-95
2021/01/30 10:36:59;;;;;;;2.30;1.50;;;2.30;99.90;;;;;;1518922;22;20516;-92
2021/01/30 10:39:26;;;;;;;3.83;1.27;;;2.30;99.90;;;;;;5054619;28;20036;-93
2021/01/30 10:42:00;;;;;;;5.90;1.90;;;2.20;99.90;;;;;;5069147;28;20076;-94
2021/01/30 10:44:30;;;;;;;8.60;1.65;;;2.20;99.90;;;;;;5066585;28;20025;-95
2021/01/30 10:46:59;;;;;;;1.80;1.42;;;2.20;99.90;;;;;;5057887;28;20484;-94
2021/01/30 10:49:29;;;;;;;2.90;1.60;;;2.30;99.90;;;;;;5058286;28;20090;-95
2021/01/30 10:52:27;;;;;;;6.35;1.80;;;2.30;99.90;;;;;;5055062;28;20032;-96
2021/01/30 10:54:52;;;;;;;7.32;1.55;;;2.30;99.90;;;;;;5051546;28;20033;-96
2021/01/30 10:57:18;;;;;;;10.93;2.15;;;2.30;99.90;;;;;;5053881;28;20043;-95
2021/01/30 11:00:01;;;;;;;9.55;2.17;;;2.40;99.90;;;;;;5057641;28;20086;-96
2021/01/30 11:02:38;;;;;;;4.22;1.80;;;2.40;99.90;;;;;;5050844;28;20407;-94
2021/01/30 11:05:10;;;;;;;4.15;1.52;;;2.40;99.90;;;;;;5057108;28;20029;-92
2021/01/30 11:07:44;;;;;;;5.50;1.63;;;2.40;99.90;;;;;;5057497;28;20024;-94
2021/01/30 11:10:27;;;;;;;5.28;1.55;;;2.40;99.90;;;;;;5056486;28;20033;-95
2021/01/30 11:13:06;;;;;;;3.20;1.30;;;2.40;99.90;;;;;;5053130;28;20048;-94
2021/01/30 11:15:32;;;;;;;3.17;1.40;;;2.30;99.90;;;;;;5052377;28;20028;-94
2021/01/30 11:18:28;;;;;;;3.75;1.20;;;2.40;99.90;;;;;;5051728;28;20106;-93
2021/01/30 11:20:56;;;;;;;2.95;1.02;;;2.40;99.90;;;;;;5053031;28;20463;-95
2021/01/30 11:23:49;;;;;;;4.18;1.08;;;2.40;99.90;;;;;;5055749;28;20048;-95
2021/01/30 11:26:31;;;;;;;3.47;1.63;;;2.40;99.90;;;;;;5050851;28;20127;-94
2021/01/30 11:28:59;;;;;;;3.85;1.58;;;2.30;99.90;;;;;;5054925;28;20028;-95
2021/01/30 11:31:26;;;;;;;2.65;1.60;;;2.30;99.90;;;;;;5050682;28;20145;-94
2021/01/30 11:33:56;;;;;;;4.90;1.83;;;2.30;99.90;;;;;;5052558;28;20475;-94
2021/01/30 11:36:22;;;;;;;5.63;1.50;;;2.30;99.90;;;;;;5053889;28;20017;-96
2021/01/30 11:39:03;;;;;;;5.28;1.55;;;2.30;99.90;;;;;;5052734;28;20048;-95
2021/01/30 11:41:29;;;;;;;1.98;1.00;;;2.40;99.90;;;;;;5053346;28;20048;-95
2021/01/30 11:43:56;;;;;;;1.58;1.20;;;2.40;99.90;;;;;;5044888;28;20078;-92
2021/01/30 11:46:22;;;;;;;2.50;1.50;;;2.40;99.90;;;;;;5049615;28;20021;-93
2021/01/30 11:48:48;;;;;;;7.28;1.50;;;2.30;99.90;;;;;;5046072;28;20085;-95
2021/01/30 11:51:26;;;;;;;3.90;1.30;;;2.30;99.90;;;;;;5038553;28;20033;-93
2021/01/30 11:53:52;;;;;;;5.65;1.60;;;2.30;99.90;;;;;;5046059;28;20108;-94
2021/01/30 11:56:19;;;;;;;15.13;2.78;;;2.40;99.90;;;;;;5047824;28;20498;-94
2021/01/30 11:58:45;;;;;;;6.43;1.35;;;2.40;99.90;;;;;;5046323;28;20032;-94
2021/01/30 12:01:13;;;;;;;9.43;1.98;;;2.40;99.90;;;;;;5049917;28;20040;-93
2021/01/30 12:03:39;;;;;;;7.32;1.70;;;2.40;99.90;;;;;;5052243;28;20101;-91
2021/01/30 12:06:06;;;;;;;6.50;2.10;;;2.50;99.90;;;;;;5054244;28;20067;-94
2021/01/30 12:08:31;;;;;;;7.65;2.67;;;2.50;99.90;;;;;;5050574;28;20163;-93
2021/01/30 12:10:57;;;;;;;10.65;2.13;;;2.50;99.90;;;;;;5051320;28;20052;-96
2021/01/30 12:13:23;;;;;;;12.50;2.08;;;2.60;99.90;;;;;;5046908;28;20246;-93
2021/01/30 12:15:49;;;;;;;5.53;2.15;;;2.60;99.90;;;;;;5048478;28;20024;-95
2021/01/30 12:18:17;;;;;;;8.85;1.50;;;2.70;99.90;;;;;;5049998;28;20036;-95
2021/01/30 12:20:44;;;;;;;6.60;1.65;;;2.70;99.90;;;;;;5055429;28;20021;-95
2021/01/30 12:23:11;;;;;;;7.25;1.88;;;2.70;99.90;;;;;;5041566;28;20070;-94
2021/01/30 12:25:37;;;;;;;13.75;2.00;;;2.80;99.90;;;;;;5046520;28;20103;-96
2021/01/30 12:28:05;;;;;;;13.00;2.78;;;2.80;99.90;;;;;;5044151;28;20040;-95
2021/01/30 12:30:36;;;;;;;6.03;1.40;;;2.80;99.90;;;;;;5041352;28;20017;-95
2021/01/30 12:33:02;;;;;;;7.55;1.50;;;2.90;99.90;;;;;;5045792;28;20055;-95
2021/01/30 12:35:30;;;;;;;5.63;1.50;;;2.90;99.90;;;;;;5045197;28;20029;-94
2021/01/30 12:37:56;;;;;;;9.55;1.65;;;2.80;99.90;;;;;;5046132;28;20105;-93
2021/01/30 12:40:29;;;;;;;11.68;1.85;;;2.90;99.90;;;;;;5043754;28;20021;-94
2021/01/30 12:42:55;;;;;;;2.08;1.70;;;2.80;99.90;;;;;;5042721;28;20029;-95
2021/01/30 12:45:21;;;;;;;7.68;1.95;;;2.90;99.90;;;;;;5056200;28;20030;-94
2021/01/30 12:47:47;;;;;;;7.03;2.08;;;2.80;99.90;;;;;;5046894;28;20016;-95
2021/01/30 12:50:20;;;;;;;13.88;4.63;;;2.90;99.90;;;;;;5039615;28;20033;-95
2021/01/30 12:52:45;;;;;;;6.55;2.13;;;2.90;99.90;;;;;;5045455;28;20081;-94
2021/01/30 12:55:12;;;;;;;8.60;2.58;;;2.90;99.90;;;;;;5045722;28;20062;-92
2021/01/30 12:57:38;;;;;;;11.63;2.33;;;2.90;99.90;;;;;;5048501;28;20035;-95
2021/01/30 13:00:20;;;;;;;8.60;1.90;;;2.90;99.90;;;;;;5043868;28;20033;-95
2021/01/30 13:02:46;;;;;;;5.82;2.20;;;2.90;99.90;;;;;;5043543;28;20029;-92
2021/01/30 13:05:12;;;;;;;4.93;1.55;;;2.90;99.90;;;;;;5046284;28;20116;-94
2021/01/30 13:07:39;;;;;;;10.50;2.17;;;2.90;99.90;;;;;;5044838;28;20028;-95
2021/01/30 13:10:08;;;;;;;11.60;1.95;;;2.80;99.90;;;;;;5044287;28;20044;-94
2021/01/30 13:12:33;;;;;;;5.30;1.70;;;2.90;99.90;;;;;;5045486;28;20532;-95
2021/01/30 13:14:59;;;;;;;12.77;1.65;;;2.90;99.90;;;;;;5049473;28;20044;-95
2021/01/30 13:17:25;;;;;;;6.35;1.70;;;2.90;99.90;;;;;;5046023;28;20020;-94
2021/01/30 13:19:51;;;;;;;12.63;2.20;;;2.90;99.90;;;;;;5044475;28;20070;-94
2021/01/30 13:22:21;;;;;;;11.10;2.53;;;2.90;99.90;;;;;;5056750;28;20097;-94
2021/01/30 13:24:46;;;;;;;6.32;1.73;;;2.90;99.90;;;;;;5051368;28;20021;-94
2021/01/30 13:27:12;;;;;;;10.93;2.00;;;2.90;99.90;;;;;;5045307;28;20052;-93
2021/01/30 13:29:38;;;;;;;9.30;1.90;;;2.90;99.90;;;;;;5044912;28;20032;-96
2021/01/30 13:32:04;;;;;;;11.52;1.88;;;2.90;99.90;;;;;;5049987;28;20040;-94
2021/01/30 13:34:30;;;;;;;7.47;1.90;;;2.90;99.90;;;;;;5045705;28;20090;-93
2021/01/30 13:36:55;;;;;;;8.95;2.05;;;2.90;99.90;;;;;;5042626;28;20028;-95
2021/01/30 13:39:22;;;;;;;9.30;2.40;;;2.90;99.90;;;;;;5048618;28;20056;-96
2021/01/30 13:41:48;;;;;;;9.50;1.73;;;2.90;99.90;;;;;;5049635;28;20036;-94
2021/01/30 13:44:15;;;;;;;11.48;3.10;;;2.90;99.90;;;;;;5045486;28;20029;-95
2021/01/30 13:46:41;;;;;;;12.82;1.83;;;3.00;99.90;;;;;;5041578;28;20555;-94
2021/01/30 13:49:06;;;;;;;9.00;2.25;;;2.90;99.90;;;;;;5048015;28;20102;-94
2021/01/30 13:51:32;;;;;;;11.30;2.50;;;2.90;99.90;;;;;;5045689;28;20037;-94
2021/01/30 13:54:00;;;;;;;13.35;2.15;;;3.00;99.90;;;;;;5044824;28;20040;-95
2021/01/30 13:56:27;;;;;;;9.65;1.70;;;3.00;99.90;;;;;;5053638;28;20024;-94
2021/01/30 13:58:53;;;;;;;8.65;1.73;;;3.00;99.90;;;;;;5047314;28;20029;-93
2021/01/30 14:01:19;;;;;;;5.20;1.33;;;3.00;99.90;;;;;;5047829;28;20029;-93
2021/01/30 14:03:44;;;;;;;7.63;2.05;;;3.00;99.90;;;;;;5048430;28;20115;-92
2021/01/30 14:06:10;;;;;;;9.80;1.83;;;3.00;99.90;;;;;;5048668;28;20140;-93
2021/01/30 14:08:36;;;;;;;14.23;1.55;;;3.00;99.90;;;;;;5050252;28;20028;-93
2021/01/30 14:11:01;;;;;;;7.53;1.70;;;3.00;99.90;;;;;;5047775;28;20025;-94
2021/01/30 14:13:27;;;;;;;8.95;1.90;;;3.00;99.90;;;;;;5056692;28;20040;-95
2021/01/30 14:15:54;;;;;;;7.18;1.85;;;2.90;99.90;;;;;;5064601;28;20028;-93
2021/01/30 14:18:20;;;;;;;9.43;1.92;;;3.00;99.90;;;;;;5051134;28;20028;-94
2021/01/30 14:20:46;;;;;;;7.45;1.30;;;2.90;99.90;;;;;;5048052;28;20086;-93
2021/01/30 14:23:13;;;;;;;5.90;1.88;;;2.90;99.90;;;;;;5055481;28;20024;-94
2021/01/30 14:25:40;;;;;;;9.65;1.90;;;2.90;99.90;;;;;;5049540;28;20034;-94
2021/01/30 14:28:06;;;;;;;7.72;1.52;;;2.90;99.90;;;;;;5047310;28;20068;-93
2021/01/30 14:30:33;;;;;;;8.20;1.42;;;2.90;99.90;;;;;;5048590;28;20016;-93
2021/01/30 14:32:59;;;;;;;9.05;1.55;;;2.90;99.90;;;;;;5051071;28;20036;-93
2021/01/30 14:35:26;;;;;;;10.57;1.90;;;2.90;99.90;;;;;;5058710;28;20047;-94
2021/01/30 14:37:52;;;;;;;6.63;1.92;;;2.90;99.90;;;;;;5058569;28;20041;-93
2021/01/30 14:40:26;;;;;;;6.72;1.90;;;2.80;99.90;;;;;;5059154;28;20110;-94
2021/01/30 14:42:52;;;;;;;10.95;1.33;;;2.80;99.90;;;;;;5058871;28;20091;-94
2021/01/30 14:45:18;;;;;;;6.85;2.00;;;2.80;99.90;;;;;;5057948;28;20024;-93
2021/01/30 14:47:44;;;;;;;15.43;2.92;;;2.80;99.90;;;;;;5050653;28;20025;-94
2021/01/30 14:50:11;;;;;;;8.98;1.60;;;2.80;99.90;;;;;;5058928;28;20029;-94
2021/01/30 14:52:37;;;;;;;10.93;1.85;;;2.80;99.90;;;;;;5040891;28;20044;-95
2021/01/30 14:55:04;;;;;;;10.35;1.60;;;2.80;99.90;;;;;;5039271;28;20128;-95
2021/01/30 14:57:29;;;;;;;6.57;1.30;;;2.80;99.90;;;;;;5043935;28;20033;-94
2021/01/30 14:59:55;;;;;;;4.82;1.58;;;2.90;99.90;;;;;;5038758;28;20025;-94
2021/01/30 15:02:21;;;;;;;9.05;1.42;;;2.90;99.90;;;;;;5038225;28;20033;-95
2021/01/30 15:04:46;;;;;;;6.45;1.40;;;2.90;99.90;;;;;;5039423;28;20032;-94
2021/01/30 15:07:12;;;;;;;12.32;2.60;;;2.90;99.90;;;;;;5042397;28;20079;-91
2021/01/30 15:09:42;;;;;;;8.27;1.25;;;2.90;99.90;;;;;;5040457;28;20052;-95
2021/01/30 15:12:08;;;;;;;7.13;1.60;;;3.00;99.90;;;;;;5047833;23;20045;-96
2021/01/30 15:14:34;;;;;;;11.10;2.67;;;2.90;99.90;;;;;;5054219;28;20075;-93
2021/01/30 15:16:59;;;;;;;10.90;1.60;;;3.00;99.90;;;;;;5032196;28;20072;-93
2021/01/30 15:19:25;;;;;;;7.57;1.70;;;3.00;99.90;;;;;;5025095;28;20517;-94
2021/01/30 15:21:55;;;;;;;8.43;1.50;;;3.00;99.90;;;;;;5031336;28;20024;-93
2021/01/30 15:24:20;;;;;;;8.60;1.60;;;3.00;99.90;;;;;;5036316;28;20074;-93
2021/01/30 15:26:46;;;;;;;14.05;2.72;;;3.10;99.90;;;;;;5033804;28;20029;-93
2021/01/30 15:29:12;;;;;;;12.05;2.50;;;3.10;99.90;;;;;;5033197;28;20135;-93
2021/01/30 15:31:37;;;;;;;14.88;1.80;;;3.10;99.90;;;;;;5033534;28;20037;-94
2021/01/30 15:34:03;;;;;;;7.85;2.00;;;3.20;99.90;;;;;;5035130;28;20044;-92
2021/01/30 15:36:29;;;;;;;9.38;1.75;;;3.20;99.90;;;;;;5028889;28;20033;-94
2021/01/30 15:38:55;;;;;;;7.75;1.50;;;3.20;99.90;;;;;;5035193;28;20040;-95
2021/01/30 15:41:21;;;;;;;9.60;1.45;;;3.20;99.90;;;;;;5034190;28;20032;-94
2021/01/30 15:43:46;;;;;;;8.02;1.50;;;3.20;99.90;;;;;;5041084;28;20033;-94
2021/01/30 15:46:12;;;;;;;8.75;2.15;;;3.20;99.90;;;;;;5049193;28;20041;-94
2021/01/30 15:48:38;;;;;;;12.05;1.95;;;3.10;99.90;;;;;;5047657;28;20044;-94
2021/01/30 15:51:04;;;;;;;9.45;1.50;;;3.00;99.90;;;;;;5039902;28;20456;-92
2021/01/30 15:53:30;;;;;;;9.02;1.85;;;3.00;99.90;;;;;;5041724;28;20044;-93
2021/01/30 15:55:59;;;;;;;11.88;2.08;;;3.00;99.90;;;;;;5037626;28;20025;-94
2021/01/30 15:58:25;;;;;;;9.27;1.55;;;3.00;99.90;;;;;;5036147;28;20024;-93
2021/01/30 16:00:51;;;;;;;8.45;1.92;;;2.90;99.90;;;;;;5036599;28;20024;-93
2021/01/30 16:03:17;;;;;;;6.63;1.55;;;2.90;99.90;;;;;;5035660;28;20021;-93
2021/01/30 16:05:42;;;;;;;9.68;1.90;;;2.80;99.90;;;;;;5035283;28;20124;-93
2021/01/30 16:08:08;;;;;;;10.20;1.63;;;2.80;99.90;;;;;;5016396;28;20101;-93
2021/01/30 16:10:34;;;;;;;8.18;1.75;;;2.80;99.90;;;;;;5016301;28;20128;-92
2021/01/30 16:12:59;;;;;;;7.47;2.03;;;2.80;99.90;;;;;;5016193;28;20049;-94
2021/01/30 16:15:25;;;;;;;9.65;1.30;;;2.80;99.90;;;;;;5021362;28;20026;-93
2021/01/30 16:17:51;;;;;;;10.10;1.90;;;2.80;99.90;;;;;;5016546;28;20021;-94
2021/01/30 16:20:20;;;;;;;6.60;1.45;;;2.80;99.90;;;;;;5021749;28;20045;-93
2021/01/30 16:22:45;;;;;;;10.32;1.40;;;2.70;99.90;;;;;;5038716;28;20037;-93
2021/01/30 16:25:12;;;;;;;4.05;1.80;;;2.70;99.90;;;;;;5038849;28;20109;-94
2021/01/30 16:27:41;;;;;;;12.15;1.83;;;2.70;99.90;;;;;;5037963;28;20032;-96
2021/01/30 16:30:09;;;;;;;4.75;1.50;;;2.70;99.90;;;;;;5038424;28;20484;-94
2021/01/30 16:32:34;;;;;;;10.32;2.08;;;2.60;99.90;;;;;;5039363;28;20051;-94
2021/01/30 16:35:00;;;;;;;5.57;1.63;;;2.60;99.90;;;;;;5038610;28;20029;-95
2021/01/30 16:37:26;;;;;;;11.77;1.90;;;2.60;99.90;;;;;;5037591;28;20492;-93
2021/01/30 16:39:55;;;;;;;8.00;1.75;;;2.50;99.90;;;;;;5038523;28;20025;-95
2021/01/30 16:42:22;;;;;;;10.43;2.08;;;2.50;99.90;;;;;;5040663;28;20391;-94
2021/01/30 16:44:49;;;;;;;3.95;1.45;;;2.50;99.90;;;;;;5037705;28;20555;-95
2021/01/30 16:47:15;;;;;;;7.22;2.20;;;2.50;99.90;;;;;;5034962;28;20059;-94
2021/01/30 16:49:44;;;;;;;6.47;1.63;;;2.50;99.90;;;;;;5036920;28;20028;-92
2021/01/30 16:52:10;;;;;;;6.00;1.70;;;2.50;99.90;;;;;;5037094;28;20024;-93
2021/01/30 16:54:36;;;;;;;10.70;1.98;;;2.50;99.90;;;;;;5037711;28;20031;-96
2021/01/30 16:57:04;;;;;;;14.07;2.67;;;2.50;99.90;;;;;;5037098;28;20063;-93
2021/01/30 16:59:30;;;;;;;15.57;2.45;;;2.40;99.90;;;;;;5029351;28;20027;-94
2021/01/30 17:01:56;;;;;;;10.10;1.70;;;2.40;99.90;;;;;;5030085;28;20053;-95
2021/01/30 17:04:22;;;;;;;10.40;2.05;;;2.40;99.90;;;;;;5037065;28;20561;-95
2021/01/30 17:06:47;;;;;;;14.45;2.50;;;2.40;99.90;;;;;;5031342;28;20032;-93
2021/01/30 17:09:13;;;;;;;8.32;1.67;;;2.40;99.90;;;;;;5035558;28;20025;-95
2021/01/30 17:11:39;;;;;;;8.73;1.42;;;2.40;99.90;;;;;;5038339;28;20123;-94
2021/01/30 17:14:05;;;;;;;9.23;1.65;;;2.40;99.90;;;;;;5033977;28;20476;-94
2021/01/30 17:16:31;;;;;;;8.05;1.80;;;2.30;99.90;;;;;;5035659;28;20036;-95
2021/01/30 17:18:57;;;;;;;7.95;1.60;;;2.30;99.90;;;;;;5036057;28;20465;-94
2021/01/30 17:21:23;;;;;;;6.30;2.00;;;2.30;99.90;;;;;;5039047;28;20067;-94
2021/01/30 17:23:49;;;;;;;4.78;1.60;;;2.30;99.90;;;;;;5032456;28;20434;-94
2021/01/30 17:26:15;;;;;;;10.60;1.88;;;2.30;99.90;;;;;;5036757;28;20028;-93
2021/01/30 17:28:42;;;;;;;5.70;1.42;;;2.30;99.90;;;;;;5037018;28;20078;-93
2021/01/30 17:31:08;;;;;;;6.45;1.75;;;2.20;99.90;;;;;;5037880;28;20025;-94
2021/01/30 17:33:36;;;;;;;10.15;2.13;;;2.20;99.90;;;;;;5040640;28;20061;-94
2021/01/30 17:36:04;;;;;;;5.65;1.70;;;2.20;99.90;;;;;;5042077;28;20025;-93
2021/01/30 17:38:32;;;;;;;9.93;1.80;;;2.20;99.90;;;;;;5040975;28;20040;-93
2021/01/30 17:40:59;;;;;;;7.03;1.60;;;2.20;99.90;;;;;;5042919;28;20024;-93
2021/01/30 17:43:24;;;;;;;13.73;1.90;;;2.20;99.90;;;;;;5044979;28;20037;-94
2021/01/30 17:45:51;;;;;;;6.60;2.20;;;2.10;99.90;;;;;;5041693;28;20075;-96
2021/01/30 17:48:16;;;;;;;6.78;2.22;;;2.10;99.90;;;;;;5023769;28;20037;-94
2021/01/30 17:50:42;;;;;;;11.43;3.33;;;2.10;99.90;;;;;;5032829;28;20040;-93
2021/01/30 17:53:08;;;;;;;9.63;3.17;;;2.20;99.90;;;;;;5026083;28;20413;-94
2021/01/30 17:55:33;;;;;;;8.38;2.00;;;2.10;99.90;;;;;;5029221;28;20033;-94
2021/01/30 17:57:59;;;;;;;7.75;2.90;;;2.20;99.90;;;;;;5037451;28;20016;-95
2021/01/30 18:00:30;;;;;;;6.13;2.20;;;2.20;99.90;;;;;;5045984;28;20048;-96
2021/01/30 18:02:56;;;;;;;8.43;1.83;;;2.20;99.90;;;;;;5051775;28;20337;-95
2021/01/30 18:05:22;;;;;;;6.45;2.08;;;2.20;99.90;;;;;;5041328;28;20055;-93
2021/01/30 18:07:48;;;;;;;7.55;1.95;;;2.20;99.90;;;;;;5039548;28;20025;-93
2021/01/30 18:10:15;;;;;;;13.93;2.35;;;2.20;99.90;;;;;;5039710;28;20017;-94
2021/01/30 18:12:41;;;;;;;6.10;2.22;;;2.20;99.90;;;;;;5047763;28;20053;-93
2021/01/30 18:15:08;;;;;;;8.20;2.10;;;2.30;99.90;;;;;;5055327;28;20025;-93
2021/01/30 18:17:35;;;;;;;9.88;2.67;;;2.30;99.90;;;;;;5033965;28;20029;-93
2021/01/30 18:20:01;;;;;;;14.70;3.00;;;2.30;99.90;;;;;;5017858;28;20055;-95
2021/01/30 18:22:26;;;;;;;7.95;2.80;;;2.20;99.90;;;;;;5017045;28;20037;-94
2021/01/30 18:24:52;;;;;;;18.05;3.33;;;2.20;99.90;;;;;;5030627;28;20025;-94
2021/01/30 18:27:25;;;;;;;8.02;2.90;;;2.30;99.90;;;;;;5037263;28;20031;-92
2021/01/30 18:29:52;;;;;;;11.73;3.25;;;2.30;99.90;;;;;;5036677;28;20480;-93
2021/01/30 18:32:19;;;;;;;10.40;3.10;;;2.30;99.90;;;;;;5036874;28;20048;-93
2021/01/30 18:34:45;;;;;;;12.18;3.53;;;2.30;99.90;;;;;;5036069;28;20123;-93
2021/01/30 18:37:11;;;;;;;6.63;2.70;;;2.30;99.90;;;;;;5037012;28;20190;-95
2021/01/30 18:39:37;;;;;;;12.88;3.33;;;2.30;99.90;;;;;;5036868;28;20119;-92
2021/01/30 18:42:03;;;;;;;9.10;3.30;;;2.30;99.90;;;;;;5036928;28;20119;-92
2021/01/30 18:44:29;;;;;;;12.98;3.08;;;2.20;99.90;;;;;;5035868;28;20021;-92
2021/01/30 18:46:55;;;;;;;6.13;2.45;;;2.20;99.90;;;;;;5037360;28;20033;-93
2021/01/30 18:49:20;;;;;;;13.50;3.13;;;2.20;99.90;;;;;;5036550;28;20119;-94
2021/01/30 18:51:46;;;;;;;8.68;2.88;;;2.20;99.90;;;;;;5026827;28;20129;-96
2021/01/30 18:54:12;;;;;;;8.88;2.30;;;2.20;99.90;;;;;;5029415;28;20033;-92
2021/01/30 18:56:39;;;;;;;8.00;2.45;;;2.10;99.90;;;;;;5038915;28;20047;-94
2021/01/30 18:59:08;;;;;;;11.20;2.78;;;2.10;99.90;;;;;;5038930;28;20420;-94
2021/01/30 19:01:34;;;;;;;8.90;2.50;;;2.10;99.90;;;;;;5036608;28;20025;-93
2021/01/30 19:03:59;;;;;;;9.85;2.80;;;2.10;99.90;;;;;;5025591;28;20031;-93
2021/01/30 19:06:25;;;;;;;6.57;2.33;;;2.00;99.90;;;;;;5019087;28;20064;-93
2021/01/30 19:08:51;;;;;;;5.90;1.70;;;2.00;99.90;;;;;;5016351;28;20148;-93
2021/01/30 19:11:19;;;;;;;19.48;3.30;;;2.00;99.90;;;;;;4991642;28;702516;-94
2021/01/30 19:13:45;;;;;;;8.63;2.47;;;2.00;99.90;;;;;;5020372;28;20519;-95
2021/01/30 19:16:13;;;;;;;9.38;2.42;;;2.00;99.90;;;;;;5029982;28;20115;-93
2021/01/30 19:18:39;;;;;;;8.68;2.00;;;1.90;99.90;;;;;;5037152;28;20025;-92
2021/01/30 19:21:05;;;;;;;5.75;2.30;;;1.90;99.90;;;;;;5037812;28;20039;-96
2021/01/30 19:23:30;;;;;;;8.70;2.17;;;1.90;99.90;;;;;;5033642;28;20078;-94
2021/01/30 19:25:56;;;;;;;8.82;2.42;;;1.90;99.90;;;;;;5031646;28;20021;-94
2021/01/30 19:28:22;;;;;;;10.07;2.40;;;1.80;99.90;;;;;;5020305;28;20197;-94
2021/01/30 19:30:48;;;;;;;22.42;2.25;;;1.80;99.90;;;;;;5026435;28;20029;-94
2021/01/30 19:33:16;;;;;;;4.47;2.22;;;1.80;99.90;;;;;;5025252;28;20094;-94
2021/01/30 19:35:42;;;;;;;14.27;2.47;;;1.80;99.90;;;;;;5024189;28;20026;-92
2021/01/30 19:38:14;;;;;;;10.50;2.20;;;1.80;99.90;;;;;;5027180;28;20119;-93
2021/01/30 19:40:41;;;;;;;8.88;2.30;;;1.80;99.90;;;;;;5030607;28;20021;-92
2021/01/30 19:43:07;;;;;;;8.43;2.35;;;1.70;99.90;;;;;;5035093;28;20025;-93
2021/01/30 19:45:33;;;;;;;8.07;1.85;;;1.70;99.90;;;;;;5032826;28;20387;-92
2021/01/30 19:47:59;;;;;;;16.52;3.42;;;1.70;99.90;;;;;;5033114;28;20029;-94
2021/01/30 19:50:37;;;;;;;9.23;2.70;;;1.60;99.90;;;;;;5028033;28;20028;-93
2021/01/30 19:53:04;;;;;;;11.75;2.58;;;1.60;99.90;;;;;;5029770;28;20041;-92
2021/01/30 19:55:29;;;;;;;5.50;2.78;;;1.60;99.90;;;;;;5025309;28;20029;-93
2021/01/30 19:57:56;;;;;;;6.72;2.42;;;1.50;99.90;;;;;;5027752;28;20047;-93
2021/01/30 20:00:26;;;;;;;7.43;2.17;;;1.50;99.90;;;;;;5025023;28;20029;-93
2021/01/30 20:02:52;;;;;;;10.23;3.92;;;1.50;99.90;;;;;;5027663;28;20029;-94
2021/01/30 20:05:21;;;;;;;8.05;3.10;;;1.40;99.90;;;;;;5024602;28;20564;-93
2021/01/30 20:07:46;;;;;;;9.85;3.13;;;1.40;99.90;;;;;;5021394;28;20044;-93
2021/01/30 20:10:15;;;;;;;14.05;3.30;;;1.40;99.90;;;;;;5023039;28;20021;-91
2021/01/30 20:12:41;;;;;;;8.27;2.65;;;1.40;99.90;;;;;;5024028;28;20072;-94
2021/01/30 20:15:08;;;;;;;8.45;3.13;;;1.30;99.90;;;;;;5025894;28;20057;-93
2021/01/30 20:17:34;;;;;;;9.15;2.63;;;1.30;99.90;;;;;;5024338;28;20021;-93
2021/01/30 20:20:00;;;;;;;14.40;2.95;;;1.30;99.90;;;;;;5024919;28;20051;-92
2021/01/30 20:22:26;;;;;;;8.98;2.38;;;1.30;99.90;;;;;;5025794;28;20123;-93
2021/01/30 20:24:51;;;;;;;12.07;2.70;;;1.20;99.90;;;;;;5023076;28;20079;-94
2021/01/30 20:27:19;;;;;;;14.38;2.60;;;1.20;99.90;;;;;;5024682;28;20021;-95
2021/01/30 20:29:46;;;;;;;8.05;2.83;;;1.20;99.90;;;;;;5024072;28;20494;-93
2021/01/30 20:32:13;;;;;;;8.23;3.00;;;1.20;99.90;;;;;;5023548;28;20057;-92
2021/01/30 20:34:39;;;;;;;8.63;2.92;;;1.20;99.90;;;;;;5025499;28;20453;-92
2021/01/30 20:37:05;;;;;;;12.52;4.20;;;1.10;99.90;;;;;;5019572;28;20112;-92
2021/01/30 20:39:30;;;;;;;11.50;3.72;;;1.10;99.90;;;;;;5016367;28;20025;-95
2021/01/30 20:41:56;;;;;;;10.77;2.88;;;1.10;99.90;;;;;;5015912;28;20397;-95
2021/01/30 20:44:22;;;;;;;11.95;3.13;;;1.10;99.90;;;;;;5016060;28;20033;-95
2021/01/30 20:46:47;;;;;;;8.20;3.00;;;1.00;99.90;;;;;;5016068;28;20068;-93
2021/01/30 20:49:13;;;;;;;16.10;4.22;;;1.00;99.90;;;;;;5016030;28;20030;-92
2021/01/30 20:51:39;;;;;;;9.73;2.60;;;1.00;99.90;;;;;;5016596;28;20029;-94
2021/01/30 20:54:05;;;;;;;11.52;3.40;;;0.90;99.90;;;;;;5016649;28;20041;-94
2021/01/30 20:56:33;;;;;;;8.20;3.00;;;0.90;99.90;;;;;;5016409;28;20033;-92
2021/01/30 20:58:59;;;;;;;11.77;3.20;;;0.90;99.90;;;;;;5016433;28;20033;-93
2021/01/30 21:01:25;;;;;;;9.90;3.28;;;0.90;99.90;;;;;;5016721;28;20476;-92